createdAt,value
2019-02-26T00:00:14.406Z,96189.20
2019-02-26T00:02:46.555Z,96182.11
2019-02-26T00:05:13.106Z,96182.79
2019-02-26T00:07:44.416Z,96181.55
2019-02-26T00:10:11.513Z,96176.98
2019-02-26T00:12:40.529Z,96174.20
2019-02-26T00:15:10.467Z,96172.20
2019-02-26T00:17:41.193Z,96172.87
2019-02-26T00:20:10.925Z,96168.50
2019-02-26T00:22:38.970Z,96168.35
2019-02-26T00:25:08.483Z,96162.14
2019-02-26T00:27:36.543Z,96157.67
2019-02-26T00:30:08.677Z,96162.00
2019-02-26T00:32:36.604Z,96152.24
2019-02-26T00:35:04.872Z,96150.80
2019-02-26T00:37:33.955Z,96161.89
2019-02-26T00:40:02.972Z,96147.83
2019-02-26T00:42:34.283Z,96136.48
2019-02-26T00:45:03.332Z,96140.42
2019-02-26T00:47:33.906Z,96142.59
2019-02-26T00:50:00.253Z,96144.75
2019-02-26T00:52:30.401Z,96136.16
2019-02-26T00:55:00.015Z,96132.69
2019-02-26T00:57:29.446Z,96129.20
2019-02-26T00:59:57.011Z,96125.55
2019-02-26T01:02:26.183Z,96119.60
2019-02-26T01:04:55.215Z,96106.56
2019-02-26T01:07:25.962Z,96106.16
2019-02-26T01:09:54.690Z,96105.53
2019-02-26T01:12:22.523Z,96098.35
2019-02-26T01:14:51.682Z,96089.17
2019-02-26T01:17:20.804Z,96078.91
2019-02-26T01:19:49.766Z,96062.58
2019-02-26T01:22:18.879Z,96061.22
2019-02-26T01:24:49.692Z,96061.77
2019-02-26T01:27:17.219Z,96064.50
2019-02-26T01:29:47.348Z,96068.20
2019-02-26T01:32:17.548Z,96065.73
2019-02-26T01:34:45.006Z,96060.24
2019-02-26T01:37:13.570Z,96052.38
2019-02-26T01:39:44.676Z,96060.64
2019-02-26T01:42:13.364Z,96054.53
2019-02-26T01:44:42.129Z,96064.81
2019-02-26T01:47:10.124Z,96051.05
2019-02-26T01:49:39.843Z,96056.18
2019-02-26T01:52:09.044Z,96062.86
2019-02-26T02:11:23.806Z,96026.80
2019-02-26T02:13:51.625Z,96020.14
2019-02-26T02:16:22.124Z,96019.16
2019-02-26T02:18:51.362Z,96025.57
2019-02-26T02:21:19.585Z,96019.70
2019-02-26T02:23:49.219Z,96001.36
2019-02-26T02:26:17.783Z,96003.78
2019-02-26T02:28:47.203Z,95994.76
2019-02-26T02:31:16.610Z,96001.88
2019-02-26T02:33:45.709Z,95994.48
2019-02-26T02:36:15.518Z,95983.05
2019-02-26T02:38:44.078Z,95993.43
2019-02-26T02:41:13.205Z,95982.61
2019-02-26T02:43:42.316Z,95985.22
2019-02-26T02:46:11.388Z,95992.91
2019-02-26T02:48:40.483Z,95992.86
2019-02-26T02:51:13.167Z,95984.36
2019-02-26T02:53:38.782Z,96002.95
2019-02-26T02:56:10.530Z,95995.42
2019-02-26T02:58:38.618Z,95983.27
2019-02-26T03:01:06.184Z,95987.17
2019-02-26T03:03:35.262Z,95991.73
2019-02-26T03:06:06.881Z,95993.31
2019-02-26T03:08:33.679Z,95993.41
2019-02-26T03:11:02.792Z,96000.80
2019-02-26T03:13:32.171Z,95990.19
2019-02-26T03:16:01.662Z,95991.93
2019-02-26T03:18:30.344Z,95993.73
2019-02-26T03:21:01.849Z,95989.17
2019-02-26T03:23:28.640Z,95988.55
2019-02-26T03:25:57.544Z,95987.52
2019-02-26T03:28:27.296Z,95976.86
2019-02-26T03:30:56.340Z,95979.47
2019-02-26T03:33:25.502Z,95979.73
2019-02-26T03:35:54.591Z,95990.44
2019-02-26T03:38:26.264Z,95991.22
2019-02-26T03:40:54.696Z,95987.82
2019-02-26T03:43:21.858Z,95989.42
2019-02-26T03:45:51.828Z,95995.21
2019-02-26T03:48:20.834Z,95992.48
2019-02-26T03:50:50.954Z,95994.80
2019-02-26T03:53:20.048Z,96001.40
2019-02-26T03:55:49.220Z,96004.74
2019-02-26T03:58:18.314Z,96000.07
2019-02-26T04:00:48.127Z,95996.44
2019-02-26T04:03:17.629Z,95997.63
2019-02-26T04:05:46.284Z,95995.06
2019-02-26T04:08:16.565Z,95994.55
2019-02-26T04:10:45.642Z,95993.61
2019-02-26T04:13:13.676Z,95981.36
2019-02-26T04:15:42.741Z,95980.30
2019-02-26T04:18:11.828Z,95966.70
2019-02-26T04:37:35.232Z,95955.59
2019-02-26T04:40:14.921Z,95949.34
2019-02-26T04:45:05.095Z,95945.70
2019-02-26T04:47:34.026Z,95929.45
2019-02-26T04:50:05.562Z,95889.69
2019-02-26T04:52:33.190Z,95911.72
2019-02-26T04:55:01.228Z,95913.31
2019-02-26T05:14:20.814Z,95872.47
2019-02-26T05:16:44.917Z,95875.84
2019-02-26T05:19:16.386Z,95870.30
2019-02-26T05:21:42.936Z,95878.72
2019-02-26T05:24:14.551Z,95874.45
2019-02-26T05:26:41.086Z,95868.09
2019-02-26T05:29:13.348Z,95863.31
2019-02-26T05:31:43.261Z,95875.52
2019-02-26T05:34:12.422Z,95874.23
2019-02-26T05:53:27.267Z,95882.69
2019-02-26T05:55:56.392Z,95877.58
2019-02-26T05:58:25.456Z,95878.63
2019-02-26T06:00:54.557Z,95885.27
2019-02-26T06:03:24.391Z,95886.82
2019-02-26T06:05:55.492Z,95882.55
2019-02-26T06:08:25.654Z,95884.92
2019-02-26T06:10:51.892Z,95897.05
2019-02-26T06:13:20.949Z,95896.89
2019-02-26T06:15:51.408Z,95888.27
2019-02-26T06:18:20.938Z,95890.87
2019-02-26T06:20:48.670Z,95884.31
2019-02-26T06:23:17.373Z,95892.29
2019-02-26T06:25:46.472Z,95887.59
2019-02-26T06:28:18.036Z,95875.70
2019-02-26T06:30:44.857Z,95861.91
2019-02-26T06:33:16.333Z,95869.45
2019-02-26T06:35:43.460Z,95866.59
2019-02-26T06:38:12.571Z,95879.66
2019-02-26T06:40:41.990Z,95878.36
2019-02-26T06:43:10.620Z,95871.33
2019-02-26T06:45:41.127Z,95865.91
2019-02-26T06:48:12.540Z,95863.00
2019-02-26T06:50:38.646Z,95858.86
2019-02-26T06:53:09.156Z,95850.84
2019-02-26T06:55:36.512Z,95848.93
2019-02-26T06:58:16.369Z,95847.06
2019-02-26T07:00:46.382Z,95840.70
2019-02-26T07:03:15.083Z,95838.95
2019-02-26T07:05:46.491Z,95841.98
2019-02-26T07:08:13.352Z,95836.05
2019-02-26T07:10:42.552Z,95835.27
2019-02-26T07:13:12.301Z,95852.94
2019-02-26T07:15:43.013Z,95837.23
2019-02-26T07:18:13.750Z,95845.59
2019-02-26T07:20:46.526Z,95842.84
2019-02-26T07:23:10.663Z,95833.70
2019-02-26T07:25:39.404Z,95840.92
2019-02-26T07:28:07.671Z,95844.00
2019-02-26T07:30:37.573Z,95835.00
2019-02-26T07:33:07.692Z,95831.47
2019-02-26T07:35:37.287Z,95832.89
2019-02-26T07:38:05.100Z,95825.02
2019-02-26T07:40:35.915Z,95815.20
2019-02-26T07:43:06.949Z,95815.33
2019-02-26T07:45:32.656Z,95793.89
2019-02-26T07:48:01.748Z,95783.81
2019-02-26T07:50:34.132Z,95782.56
2019-02-26T07:53:00.037Z,95771.30
2019-02-26T07:55:32.229Z,95762.23
2019-02-26T07:57:58.368Z,95751.52
2019-02-26T08:00:27.499Z,95750.52
2019-02-26T08:03:00.186Z,95757.64
2019-02-26T08:05:28.960Z,95759.48
2019-02-26T08:07:57.821Z,95765.80
2019-02-26T08:10:26.883Z,95766.23
2019-02-26T08:12:56.711Z,95773.41
2019-02-26T08:15:25.208Z,95755.36
2019-02-26T08:17:57.764Z,95761.65
2019-02-26T08:20:23.515Z,95763.86
2019-02-26T08:22:54.247Z,95774.50
2019-02-26T08:25:22.089Z,95773.63
2019-02-26T08:27:52.150Z,95750.50
2019-02-26T08:30:23.348Z,95754.37
2019-02-26T08:32:53.427Z,95744.98
2019-02-26T08:35:19.085Z,95750.38
2019-02-26T08:37:47.993Z,95749.69
2019-02-26T08:40:16.986Z,95747.95
2019-02-26T08:42:46.139Z,95751.75
2019-02-26T08:45:17.790Z,95737.23
2019-02-26T08:47:46.083Z,95728.13
2019-02-26T08:50:15.199Z,95730.02
2019-02-26T08:52:47.072Z,95728.57
2019-02-26T08:55:15.649Z,95721.30
2019-02-26T08:57:43.107Z,95704.13
2019-02-26T09:00:14.967Z,95691.80
2019-02-26T09:02:46.012Z,95703.00
2019-02-26T09:05:13.352Z,95690.01
2019-02-26T09:07:43.344Z,95678.91
2019-02-26T09:10:13.154Z,95685.64
2019-02-26T09:12:43.576Z,95689.75
2019-02-26T09:15:12.612Z,95698.28
2019-02-26T09:17:42.170Z,95678.09
2019-02-26T09:20:14.668Z,95677.37
2019-02-26T09:22:45.710Z,95671.39
2019-02-26T09:25:12.164Z,95667.03
2019-02-26T09:27:43.037Z,95662.48
2019-02-26T09:30:13.996Z,95653.73
2019-02-26T09:32:44.734Z,95667.45
2019-02-26T09:35:12.944Z,95661.79
2019-02-26T09:37:42.881Z,95657.50
2019-02-26T09:40:12.692Z,95662.75
2019-02-26T09:42:43.745Z,95645.07
2019-02-26T09:45:15.410Z,95639.61
2019-02-26T09:47:44.797Z,95643.00
2019-02-26T09:50:12.923Z,95636.29
2019-02-26T09:52:41.664Z,95628.86
2019-02-26T09:55:11.507Z,95629.47
2019-02-26T09:57:40.659Z,95616.15
2019-02-26T10:00:14.594Z,95617.61
2019-02-26T10:02:44.721Z,95621.50
2019-02-26T10:05:13.984Z,95604.73
2019-02-26T10:07:41.459Z,95602.61
2019-02-26T10:10:14.131Z,95590.78
2019-02-26T10:12:41.839Z,95580.69
2019-02-26T10:15:11.675Z,95566.16
2019-02-26T10:17:42.748Z,95562.23
2019-02-26T10:20:13.201Z,95563.42
2019-02-26T10:22:42.291Z,95557.55
2019-02-26T10:25:11.709Z,95561.25
2019-02-26T10:27:43.081Z,95557.75
2019-02-26T10:30:14.362Z,95550.87
2019-02-26T10:32:44.052Z,95546.34
2019-02-26T10:35:15.633Z,95542.37
2019-02-26T10:37:44.942Z,95538.16
2019-02-26T10:40:15.150Z,95531.36
2019-02-26T10:42:43.224Z,95536.92
2019-02-26T10:45:12.934Z,95527.04
2019-02-26T10:47:42.069Z,95505.27
2019-02-26T10:50:16.154Z,95504.66
2019-02-26T10:52:43.516Z,95510.27
2019-02-26T10:55:15.121Z,95500.12
2019-02-26T10:57:42.120Z,95496.23
2019-02-26T11:00:15.453Z,95479.79
2019-02-26T11:02:46.157Z,95462.05
2019-02-26T11:25:22.420Z,95415.44
2019-02-26T11:27:49.487Z,95410.70
2019-02-26T11:30:21.140Z,95395.44
2019-02-26T11:32:48.301Z,95391.97
2019-02-26T11:35:19.556Z,95375.17
2019-02-26T11:37:47.290Z,95366.44
2019-02-26T11:40:17.417Z,95366.16
2019-02-26T11:42:46.776Z,95354.19
2019-02-26T11:45:17.480Z,95354.46
2019-02-26T11:47:45.256Z,95371.30
2019-02-26T11:50:15.952Z,95367.09
2019-02-26T11:52:45.054Z,95366.82
2019-02-26T11:55:14.708Z,95365.14
2019-02-26T11:57:45.678Z,95358.25
2019-02-26T12:00:24.339Z,95357.25
2019-02-26T12:02:46.019Z,95358.16
2019-02-26T12:05:15.404Z,95357.73
2019-02-26T12:07:46.214Z,95353.69
2019-02-26T12:10:14.708Z,95350.59
2019-02-26T12:12:43.156Z,95348.57
2019-02-26T12:15:15.189Z,95353.48
2019-02-26T12:17:42.365Z,95341.53
2019-02-26T12:20:14.756Z,95328.87
2019-02-26T12:22:44.732Z,95317.77
2019-02-26T12:25:12.107Z,95325.38
2019-02-26T12:27:43.242Z,95311.56
2019-02-26T12:30:15.843Z,95299.86
2019-02-26T12:32:46.816Z,95307.58
2019-02-26T12:35:14.766Z,95283.67
2019-02-26T12:37:41.819Z,95288.84
2019-02-26T12:40:13.016Z,95283.47
2019-02-26T12:42:40.717Z,95278.34
2019-02-26T12:45:13.674Z,95276.55
2019-02-26T12:47:42.505Z,95268.04
2019-02-26T12:50:11.635Z,95275.98
2019-02-26T12:52:42.305Z,95272.94
2019-02-26T12:55:10.486Z,95269.83
2019-02-26T12:57:39.012Z,95259.93
2019-02-26T13:00:11.306Z,95252.49
2019-02-26T13:02:42.869Z,95251.22
2019-02-26T13:05:10.385Z,95253.05
2019-02-26T13:07:38.595Z,95248.73
2019-02-26T13:10:09.527Z,95246.08
2019-02-26T13:12:38.455Z,95235.95
2019-02-26T13:15:10.151Z,95214.22
2019-02-26T13:17:39.228Z,95205.42
2019-02-26T13:20:11.225Z,95199.64
2019-02-26T13:22:45.593Z,95191.05
2019-02-26T13:25:14.959Z,95197.98
2019-02-26T13:27:39.718Z,95190.09
2019-02-26T13:30:09.287Z,95190.31
2019-02-26T13:32:55.405Z,95200.05
2019-02-26T13:35:08.228Z,95196.02
2019-02-26T13:37:41.930Z,95192.48
2019-02-26T13:40:08.505Z,95178.77
2019-02-26T13:42:37.479Z,95174.73
2019-02-26T13:45:07.965Z,95169.03
2019-02-26T13:47:37.120Z,95162.89
2019-02-26T13:50:07.861Z,95150.77
2019-02-26T13:52:36.924Z,95152.31
2019-02-26T13:55:06.765Z,95137.11
2019-02-26T13:57:35.808Z,95158.82
2019-02-26T14:00:05.708Z,95156.08
2019-02-26T14:02:34.824Z,95165.67
2019-02-26T14:05:04.004Z,95148.13
2019-02-26T14:07:34.799Z,95151.52
2019-02-26T14:10:02.466Z,95136.34
2019-02-26T14:12:31.454Z,95133.26
2019-02-26T14:15:00.600Z,95129.73
2019-02-26T14:17:29.745Z,95122.73
2019-02-26T14:19:58.896Z,95103.52
2019-02-26T14:22:28.047Z,95104.09
2019-02-26T14:24:57.111Z,95096.30
2019-02-26T14:27:26.204Z,95089.81
2019-02-26T14:29:55.413Z,95089.16
2019-02-26T14:32:24.473Z,95092.69
2019-02-26T14:34:53.571Z,95081.45
2019-02-26T14:37:22.807Z,95084.91
2019-02-26T14:39:51.871Z,95081.72
2019-02-26T14:42:21.659Z,95076.82
2019-02-26T14:44:50.850Z,95083.16
2019-02-26T14:47:19.975Z,95090.80
2019-02-26T14:49:49.083Z,95076.13
2019-02-26T14:52:18.264Z,95068.64
2019-02-26T14:54:47.397Z,95070.61
2019-02-26T14:57:16.386Z,95069.22
2019-02-26T14:59:45.268Z,95066.92
2019-02-26T15:02:14.402Z,95063.62
2019-02-26T15:28:09.936Z,95015.48
2019-02-26T15:47:23.973Z,95019.13
2019-02-26T15:49:53.277Z,95021.73
2019-02-26T15:52:22.742Z,95028.08
2019-02-26T15:54:51.882Z,95024.87
2019-02-26T15:57:21.024Z,95030.70
2019-02-26T15:59:51.302Z,95032.20
2019-02-26T16:02:19.311Z,95034.80
2019-02-26T16:04:48.412Z,95034.80
2019-02-26T16:07:17.386Z,95042.70
2019-02-26T16:09:46.413Z,95050.83
2019-02-26T16:12:15.593Z,95035.34
2019-02-26T16:14:45.279Z,95057.38
2019-02-26T16:17:14.495Z,95052.39
2019-02-26T16:19:43.803Z,95051.02
2019-02-26T16:22:12.994Z,95054.25
2019-02-26T16:24:41.980Z,95051.56
2019-02-26T16:27:11.299Z,95055.33
2019-02-26T16:29:40.308Z,95044.78
2019-02-26T16:32:09.488Z,95054.16
2019-02-26T16:34:38.494Z,95057.95
2019-02-26T16:37:07.973Z,95067.70
2019-02-26T16:39:36.860Z,95076.34
2019-02-26T16:42:06.196Z,95085.27
2019-02-26T16:44:35.247Z,95082.00
2019-02-26T16:47:05.321Z,95088.39
2019-02-26T16:49:33.986Z,95089.95
2019-02-26T16:52:03.053Z,95102.39
2019-02-26T16:54:32.179Z,95107.20
2019-02-26T16:57:01.283Z,95103.56
2019-02-26T16:59:30.324Z,95107.23
2019-02-26T17:01:59.489Z,95107.67
2019-02-26T17:04:28.388Z,95107.58
2019-02-26T17:06:57.461Z,95122.37
2019-02-26T17:09:26.537Z,95122.69
2019-02-26T17:11:55.665Z,95127.33
2019-02-26T17:14:24.755Z,95113.50
2019-02-26T17:16:53.900Z,95124.85
2019-02-26T17:19:23.117Z,95135.05
2019-02-26T17:21:52.205Z,95129.98
2019-02-26T17:41:06.674Z,95105.16
2019-02-26T17:43:35.691Z,95102.36
2019-02-26T17:46:04.927Z,95099.91
2019-02-26T17:48:43.266Z,95111.03
2019-02-26T17:51:03.095Z,95115.52
2019-02-26T17:53:32.187Z,95114.92
2019-02-26T17:56:01.294Z,95116.81
2019-02-26T17:58:31.004Z,95106.56
2019-02-26T18:01:00.081Z,95112.12
2019-02-26T18:03:29.146Z,95114.33
2019-02-26T18:05:58.381Z,95114.16
2019-02-26T18:08:27.454Z,95114.45
2019-02-26T18:10:56.562Z,95108.34
2019-02-26T18:13:25.787Z,95108.18
2019-02-26T18:15:56.869Z,95106.99
2019-02-26T18:18:24.051Z,95111.89
2019-02-26T18:20:53.357Z,95120.33
2019-02-26T18:23:22.423Z,95107.63
2019-02-26T18:25:51.465Z,95106.14
2019-02-26T18:28:20.621Z,95107.73
2019-02-26T18:30:49.737Z,95112.02
2019-02-26T18:33:18.845Z,95109.73
2019-02-26T18:35:48.660Z,95115.09
2019-02-26T18:38:18.080Z,95122.20
2019-02-26T18:40:46.922Z,95117.92
2019-02-26T18:43:16.075Z,95119.23
2019-02-26T18:45:45.214Z,95104.39
2019-02-26T18:48:15.093Z,95091.94
2019-02-26T18:50:43.561Z,95094.25
2019-02-26T18:53:14.114Z,95084.80
2019-02-26T18:55:43.807Z,95079.52
2019-02-26T18:58:10.923Z,95069.76
2019-02-26T19:00:40.013Z,95079.52
2019-02-26T19:03:09.553Z,95065.42
2019-02-26T19:05:38.516Z,95069.76
2019-02-26T19:08:07.608Z,95068.58
2019-02-26T19:27:42.976Z,95135.61
2019-02-26T19:30:14.275Z,95145.97
2019-02-26T19:32:47.506Z,95152.33
2019-02-26T19:35:12.713Z,95150.62
2019-02-26T19:54:26.885Z,95146.25
2019-02-26T19:56:57.032Z,95132.32
2019-02-26T19:59:26.929Z,95124.66
2019-02-26T20:01:56.610Z,95122.38
2019-02-26T20:04:23.591Z,95118.67
2019-02-26T20:06:52.674Z,95110.52
2019-02-26T20:09:21.793Z,95106.19
2019-02-26T20:11:50.900Z,95107.97
2019-02-26T20:14:21.655Z,95105.80
2019-02-26T20:16:49.176Z,95108.10
2019-02-26T20:19:18.239Z,95101.03
2019-02-26T20:21:51.465Z,95108.00
2019-02-26T20:24:17.227Z,95116.25
2019-02-26T20:26:47.615Z,95107.79
2019-02-26T20:29:15.359Z,95114.34
2019-02-26T20:31:44.382Z,95106.88
2019-02-26T20:34:13.367Z,95109.99
2019-02-26T20:36:42.475Z,95115.37
2019-02-26T20:39:11.603Z,95115.58
2019-02-26T20:41:40.740Z,95127.22
2019-02-26T20:44:10.071Z,95132.89
2019-02-26T20:46:39.116Z,95136.88
2019-02-26T20:49:09.870Z,95137.10
2019-02-26T20:51:37.791Z,95143.16
2019-02-26T20:54:06.959Z,95144.73
2019-02-26T20:56:36.267Z,95145.05
2019-02-26T20:59:05.315Z,95148.23
2019-02-26T21:01:34.354Z,95145.95
2019-02-26T21:20:49.418Z,95135.31
2019-02-26T21:23:18.508Z,95135.72
2019-02-26T21:25:48.167Z,95135.03
2019-02-26T21:28:18.456Z,95141.78
2019-02-26T21:30:47.539Z,95149.95
2019-02-26T21:33:16.571Z,95146.58
2019-02-26T21:35:45.661Z,95138.69
2019-02-26T21:38:14.716Z,95142.28
2019-02-26T21:40:43.727Z,95143.56
2019-02-26T21:43:12.844Z,95133.92
2019-02-26T21:45:44.468Z,95127.83
2019-02-26T21:48:11.853Z,95125.38
2019-02-26T21:50:40.964Z,95120.07
2019-02-26T21:53:10.116Z,95116.91
2019-02-26T21:55:44.406Z,95112.44
2019-02-26T21:58:08.652Z,95107.27
2019-02-26T22:00:39.110Z,95103.98
2019-02-26T22:03:06.900Z,95119.78
2019-02-26T22:05:37.899Z,95119.89
2019-02-26T22:08:05.812Z,95125.06
2019-02-26T22:10:34.927Z,95123.38
2019-02-26T22:13:04.152Z,95126.25
2019-02-26T22:15:33.316Z,95134.11
2019-02-26T22:18:02.427Z,95139.19
2019-02-26T22:20:36.110Z,95137.20
2019-02-26T22:23:01.152Z,95140.30
2019-02-26T22:25:29.913Z,95135.91
2019-02-26T22:27:59.036Z,95124.59
2019-02-26T22:30:28.092Z,95131.23
2019-02-26T22:32:57.832Z,95122.00
2019-02-26T22:35:26.972Z,95108.95
2019-02-26T22:37:55.901Z,95112.83
2019-02-26T22:40:28.885Z,95112.45
2019-02-26T22:42:54.643Z,95119.91
2019-02-26T22:45:27.667Z,95120.20
2019-02-26T22:47:52.810Z,95121.70
2019-02-26T22:50:21.942Z,95125.96
2019-02-26T22:52:51.432Z,95121.78
2019-02-26T22:55:20.503Z,95128.94
2019-02-26T22:57:49.645Z,95133.23
2019-02-26T23:00:58.025Z,95126.77
2019-02-26T23:03:27.057Z,95131.94
2019-02-26T23:05:58.757Z,95122.00
2019-02-26T23:08:25.311Z,95132.65
2019-02-26T23:10:56.972Z,95124.47
2019-02-26T23:13:23.798Z,95130.36
2019-02-26T23:15:53.177Z,95122.19
2019-02-26T23:18:22.478Z,95111.25
2019-02-26T23:20:51.942Z,95115.41
2019-02-26T23:23:21.962Z,95117.02
2019-02-26T23:25:50.707Z,95119.01
2019-02-26T23:28:21.875Z,95120.02
2019-02-26T23:30:49.664Z,95122.60
2019-02-26T23:33:19.107Z,95123.17
2019-02-26T23:35:48.544Z,95126.95
2019-02-26T23:38:17.739Z,95140.11
2019-02-26T23:40:47.058Z,95134.62
2019-02-26T23:43:16.218Z,95137.59
2019-02-26T23:45:45.578Z,95144.48
2019-02-26T23:48:14.713Z,95141.78
2019-02-26T23:50:47.074Z,95149.65
2019-02-26T23:53:12.946Z,95150.25
2019-02-26T23:55:46.307Z,95154.70
2019-02-26T23:58:12.508Z,95157.20
